createdAt,value
2023-04-02T00:01:46.515Z,6.42
2023-04-02T00:04:38.039Z,6.41
2023-04-02T00:07:30.555Z,6.29
2023-04-02T00:09:57.696Z,5.81
2023-04-02T00:12:24.447Z,6.34
2023-04-02T00:14:54.543Z,6.39
2023-04-02T00:17:24.653Z,5.97
2023-04-02T00:19:57.377Z,6.23
2023-04-02T00:22:29.916Z,6.33
2023-04-02T00:24:57.278Z,6.51
2023-04-02T00:27:23.924Z,6.34
2023-04-02T00:29:53.514Z,6.26
2023-04-02T00:32:27.569Z,6.29
2023-04-02T00:34:54.956Z,6.33
2023-04-02T00:37:25.158Z,6.42
2023-04-02T00:39:57.192Z,6.40
2023-04-02T00:42:25.202Z,6.42
2023-04-02T00:44:54.654Z,6.55
2023-04-02T00:47:27.542Z,6.57
2023-04-02T00:50:01.509Z,6.45
2023-04-02T00:52:32.082Z,6.56
2023-04-02T00:55:06.677Z,6.45
2023-04-02T00:57:33.950Z,6.47
2023-04-02T01:00:22.653Z,6.57
2023-04-02T01:03:35.384Z,6.62
2023-04-02T01:06:15.429Z,6.50
2023-04-02T01:09:17.207Z,6.38
2023-04-02T01:12:02.168Z,6.48
2023-04-02T01:14:42.452Z,6.53
2023-04-02T01:17:21.377Z,6.39
2023-04-02T01:19:54.054Z,6.38
2023-04-02T01:22:51.794Z,6.48
2023-04-02T01:25:41.431Z,6.48
2023-04-02T01:28:22.248Z,6.63
2023-04-02T01:30:54.414Z,6.66
2023-04-02T01:33:23.600Z,6.55
2023-04-02T01:36:00.252Z,6.50
2023-04-02T01:38:32.867Z,6.52
2023-04-02T01:41:08.685Z,6.36
2023-04-02T01:43:40.641Z,6.43
2023-04-02T01:46:26.058Z,6.34
2023-04-02T01:48:54.706Z,6.60
2023-04-02T01:51:33.457Z,6.39
2023-04-02T01:54:04.475Z,6.60
2023-04-02T01:56:31.152Z,6.49
2023-04-02T01:58:58.965Z,6.60
2023-04-02T02:01:36.402Z,6.71
2023-04-02T02:04:03.202Z,6.68
2023-04-02T02:06:31.289Z,6.58
2023-04-02T02:09:04.133Z,6.67
2023-04-02T02:11:33.411Z,6.76
2023-04-02T02:14:02.137Z,6.72
2023-04-02T02:16:31.841Z,6.63
2023-04-02T02:19:02.084Z,6.41
2023-04-02T02:21:28.841Z,6.50
2023-04-02T02:23:57.084Z,6.57
2023-04-02T02:26:27.149Z,6.60
2023-04-02T02:28:57.043Z,6.63
2023-04-02T02:31:29.823Z,6.69
2023-04-02T02:34:22.812Z,6.72
2023-04-02T02:37:00.278Z,6.49
2023-04-02T02:39:36.333Z,6.63
2023-04-02T02:42:24.737Z,6.56
2023-04-02T02:44:55.008Z,6.63
2023-04-02T02:47:28.265Z,6.51
2023-04-02T02:50:01.713Z,6.24
2023-04-02T02:52:32.178Z,6.36
2023-04-02T02:55:12.366Z,6.49
2023-04-02T02:58:09.647Z,6.54
2023-04-02T03:00:48.077Z,6.57
2023-04-02T03:03:20.025Z,6.42
2023-04-02T03:06:01.663Z,6.48
2023-04-02T03:08:41.554Z,6.51
2023-04-02T03:11:23.777Z,6.44
2023-04-02T03:13:56.024Z,6.49
2023-04-02T03:16:35.342Z,6.63
2023-04-02T03:19:08.528Z,6.38
2023-04-02T03:22:03.154Z,6.56
2023-04-02T03:24:45.877Z,6.57
2023-04-02T03:27:23.967Z,6.50
2023-04-02T03:30:16.793Z,6.56
2023-04-02T03:32:46.174Z,6.65
2023-04-02T03:35:21.584Z,6.70
2023-04-02T03:37:59.095Z,6.64
2023-04-02T03:40:31.506Z,6.61
2023-04-02T03:43:11.260Z,6.51
2023-04-02T03:45:51.309Z,6.45
2023-04-02T03:48:26.441Z,6.51
2023-04-02T03:51:06.645Z,6.53
2023-04-02T03:53:34.284Z,6.47
2023-04-02T03:56:02.348Z,6.18
2023-04-02T03:58:41.259Z,6.47
2023-04-02T04:01:24.155Z,6.60
2023-04-02T04:03:54.368Z,6.69
2023-04-02T04:06:25.007Z,6.69
2023-04-02T04:09:00.516Z,6.67
2023-04-02T04:11:36.431Z,6.59
2023-04-02T04:14:12.810Z,6.64
2023-04-02T04:16:55.952Z,6.76
2023-04-02T04:19:38.225Z,6.63
2023-04-02T04:22:19.638Z,6.73
2023-04-02T04:24:50.253Z,6.67
2023-04-02T04:27:33.595Z,6.66
2023-04-02T04:30:18.337Z,6.61
2023-04-02T04:32:58.295Z,6.54
2023-04-02T04:35:31.327Z,6.62
2023-04-02T04:38:04.754Z,6.71
2023-04-02T04:40:36.175Z,6.67
2023-04-02T04:43:11.005Z,6.74
2023-04-02T04:45:50.446Z,6.77
2023-04-02T04:48:26.869Z,6.65
2023-04-02T04:51:05.950Z,6.57
2023-04-02T04:53:33.275Z,6.72
2023-04-02T04:56:18.200Z,6.71
2023-04-02T04:59:18.304Z,6.20
2023-04-02T05:02:11.623Z,5.82
2023-04-02T05:04:42.311Z,5.49
2023-04-02T05:07:25.300Z,5.39
2023-04-02T05:10:31.017Z,5.29
2023-04-02T05:13:05.632Z,5.26
2023-04-02T05:16:23.744Z,4.91
2023-04-02T05:19:00.817Z,5.23
2023-04-02T05:21:36.793Z,5.18
2023-04-02T05:24:32.138Z,4.96
2023-04-02T05:27:13.637Z,4.97
2023-04-02T05:29:43.540Z,5.22
2023-04-02T05:32:22.076Z,5.37
2023-04-02T05:34:55.078Z,5.16
2023-04-02T05:37:26.177Z,5.00
2023-04-02T05:39:57.632Z,4.96
2023-04-02T05:42:29.201Z,4.87
2023-04-02T05:45:20.873Z,5.00
2023-04-02T05:47:51.852Z,4.99
2023-04-02T05:50:37.060Z,4.95
2023-04-02T05:53:27.602Z,5.07
2023-04-02T05:56:00.477Z,5.03
2023-04-02T05:58:38.458Z,4.96
2023-04-02T06:01:21.937Z,4.90
2023-04-02T06:04:21.733Z,4.69
2023-04-02T06:07:24.807Z,4.86
2023-04-02T06:10:37.631Z,4.87
2023-04-02T06:13:14.882Z,5.04
2023-04-02T06:15:44.985Z,4.83
2023-04-02T06:18:20.724Z,4.65
2023-04-02T06:20:48.938Z,4.72
2023-04-02T06:23:25.492Z,4.75
2023-04-02T06:26:10.372Z,4.32
2023-04-02T06:28:46.530Z,3.94
2023-04-02T06:31:40.912Z,4.16
2023-04-02T06:34:16.661Z,4.28
2023-04-02T06:36:56.954Z,4.08
2023-04-02T06:39:27.039Z,4.12
2023-04-02T06:42:01.292Z,4.04
2023-04-02T06:44:59.867Z,3.98
2023-04-02T06:47:57.223Z,4.24
2023-04-02T06:54:53.734Z,4.34
2023-04-02T06:58:12.122Z,4.13
2023-04-02T07:00:42.510Z,4.16
2023-04-02T07:03:23.218Z,3.71
2023-04-02T07:05:50.954Z,3.91
2023-04-02T07:08:18.159Z,3.97
2023-04-02T07:11:10.829Z,4.04
2023-04-02T07:13:37.636Z,3.66
2023-04-02T07:16:04.662Z,3.85
2023-04-02T07:18:34.136Z,3.63
2023-04-02T07:21:04.430Z,3.87
2023-04-02T07:23:31.009Z,3.66
2023-04-02T07:25:58.437Z,3.81
2023-04-02T07:28:25.799Z,3.80
2023-04-02T07:30:52.754Z,3.72
2023-04-02T07:33:22.561Z,3.65
2023-04-02T07:35:50.351Z,3.70
2023-04-02T07:38:17.216Z,3.69
2023-04-02T07:40:43.968Z,3.67
2023-04-02T07:43:11.171Z,3.71
2023-04-02T07:45:38.207Z,3.78
2023-04-02T07:48:10.063Z,3.84
2023-04-02T07:50:36.730Z,4.05
2023-04-02T07:53:03.864Z,3.74
2023-04-02T07:55:30.733Z,3.83
2023-04-02T07:57:59.636Z,3.96
2023-04-02T08:00:32.960Z,3.89
2023-04-02T08:02:59.561Z,3.57
2023-04-02T08:05:26.367Z,3.89
2023-04-02T08:07:57.237Z,4.22
2023-04-02T08:10:24.728Z,3.46
2023-04-02T08:12:51.731Z,3.74
2023-04-02T08:15:20.892Z,3.50
2023-04-02T08:17:51.336Z,4.12
2023-04-02T08:20:24.769Z,3.92
2023-04-02T08:22:51.940Z,4.21
2023-04-02T08:25:22.046Z,4.05
2023-04-02T08:27:49.749Z,4.18
2023-04-02T08:30:57.730Z,3.93
2023-04-02T08:33:38.458Z,4.26
2023-04-02T08:36:19.577Z,3.92
2023-04-02T08:38:47.424Z,3.90
2023-04-02T08:41:24.602Z,3.95
2023-04-02T08:44:02.477Z,3.79
2023-04-02T08:46:41.029Z,4.09
2023-04-02T08:49:24.938Z,4.05
2023-04-02T08:51:52.156Z,3.80
2023-04-02T08:54:25.710Z,4.12
2023-04-02T08:57:02.152Z,4.21
2023-04-02T08:59:37.820Z,3.92
2023-04-02T09:02:13.433Z,3.91
2023-04-02T09:04:41.626Z,4.34
2023-04-02T09:07:14.173Z,4.83
2023-04-02T09:09:41.168Z,4.56
2023-04-02T09:12:18.522Z,4.35
2023-04-02T09:15:10.540Z,4.34
2023-04-02T09:17:50.557Z,4.72
2023-04-02T09:28:05.735Z,4.30
2023-04-02T09:30:40.774Z,4.96
2023-04-02T09:33:08.483Z,4.61
2023-04-02T09:35:40.757Z,4.63
2023-04-02T09:38:12.491Z,4.74
2023-04-02T09:40:59.830Z,4.71
2023-04-02T09:43:37.921Z,4.59
2023-04-02T09:46:06.260Z,4.73
2023-04-02T09:48:43.979Z,4.82
2023-04-02T09:51:24.328Z,4.22
2023-04-02T09:54:05.034Z,4.64
2023-04-02T09:56:39.840Z,4.57
2023-04-02T09:59:06.368Z,4.52
2023-04-02T10:01:34.369Z,4.41
2023-04-02T10:04:03.407Z,4.08
2023-04-02T10:06:31.288Z,4.47
2023-04-02T10:08:58.237Z,4.10
2023-04-02T10:11:43.829Z,4.32
2023-04-02T10:27:45.114Z,4.00
2023-04-02T10:30:25.160Z,3.64
2023-04-02T10:43:13.284Z,3.82
2023-04-02T10:46:54.442Z,3.87
2023-04-02T11:14:07.743Z,4.13
2023-04-02T11:17:12.496Z,4.49
2023-04-02T11:23:35.833Z,4.58
2023-04-02T11:26:43.854Z,4.31
2023-04-02T11:33:36.513Z,3.72
2023-04-02T11:37:18.726Z,4.40
2023-04-02T11:39:51.522Z,4.00
2023-04-02T11:49:40.025Z,3.66
2023-04-02T11:55:39.342Z,3.50
2023-04-02T11:58:58.861Z,3.69
2023-04-02T12:02:19.114Z,3.85
2023-04-02T12:05:27.125Z,3.55
2023-04-02T12:08:31.971Z,3.62
2023-04-02T12:11:14.688Z,3.28
2023-04-02T12:14:02.635Z,3.23
2023-04-02T12:17:01.258Z,3.39
2023-04-02T12:19:32.226Z,3.18
2023-04-02T12:22:17.610Z,2.98
2023-04-02T12:25:10.470Z,2.98
2023-04-02T12:27:48.525Z,3.58
2023-04-02T12:33:58.468Z,3.34
2023-04-02T12:36:26.355Z,3.29
2023-04-02T12:45:13.000Z,3.62
2023-04-02T12:48:05.569Z,3.58
2023-04-02T12:53:51.394Z,2.93
2023-04-02T12:56:21.744Z,2.51
2023-04-02T12:59:12.420Z,2.47
2023-04-02T13:01:59.125Z,2.65
2023-04-02T13:04:27.071Z,2.90
2023-04-02T13:07:00.612Z,2.71
2023-04-02T13:09:36.950Z,2.63
2023-04-02T13:12:07.426Z,2.32
2023-04-02T13:14:44.162Z,2.52
2023-04-02T13:21:14.735Z,2.09
2023-04-02T13:24:09.988Z,2.10
2023-04-02T13:26:49.950Z,2.49
2023-04-02T13:29:22.496Z,2.65
2023-04-02T13:32:11.551Z,2.60
2023-04-02T13:38:28.444Z,2.39
2023-04-02T13:42:14.142Z,2.17
2023-04-02T14:02:07.182Z,1.93
2023-04-02T14:05:23.875Z,2.14
2023-04-02T14:11:57.893Z,2.58
2023-04-02T14:14:46.556Z,2.12
2023-04-02T14:17:34.975Z,2.43
2023-04-02T14:20:17.236Z,2.12
2023-04-02T14:22:52.707Z,1.91
2023-04-02T14:25:42.247Z,1.96
2023-04-02T14:28:11.892Z,1.82
2023-04-02T14:30:41.688Z,1.91
2023-04-02T14:33:23.714Z,2.14
2023-04-02T14:35:59.505Z,2.02
2023-04-02T14:38:35.724Z,2.26
2023-04-02T14:41:16.557Z,2.46
2023-04-02T14:43:53.274Z,2.73
2023-04-02T14:46:24.652Z,2.82
2023-04-02T14:49:03.927Z,2.61
2023-04-02T14:51:36.988Z,2.72
2023-04-02T14:54:28.093Z,2.69
2023-04-02T14:57:00.611Z,2.71
2023-04-02T14:59:39.750Z,2.48
2023-04-02T15:02:18.885Z,2.72
2023-04-02T15:05:01.620Z,3.21
2023-04-02T15:07:37.110Z,2.83
2023-04-02T15:10:30.877Z,2.25
2023-04-02T15:13:00.087Z,2.25
2023-04-02T15:15:40.068Z,2.63
2023-04-02T15:18:16.446Z,2.46
2023-04-02T15:20:57.713Z,2.51
2023-04-02T15:23:42.631Z,2.42
2023-04-02T15:26:18.791Z,2.50
2023-04-02T15:29:25.904Z,2.67
2023-04-02T15:32:02.879Z,2.37
2023-04-02T15:34:50.217Z,2.34
2023-04-02T15:37:22.580Z,2.82
2023-04-02T15:39:56.724Z,2.57
2023-04-02T15:42:28.124Z,2.33
2023-04-02T15:45:06.971Z,2.52
2023-04-02T15:47:35.620Z,2.05
2023-04-02T15:50:23.149Z,2.51
2023-04-02T15:52:55.787Z,2.62
2023-04-02T15:55:27.893Z,2.50
2023-04-02T15:58:17.897Z,2.51
2023-04-02T16:01:06.022Z,2.48
2023-04-02T16:03:32.574Z,2.50
2023-04-02T16:06:25.324Z,2.21
2023-04-02T16:09:17.858Z,1.99
2023-04-02T16:11:44.364Z,1.89
2023-04-02T16:14:26.220Z,1.91
2023-04-02T16:16:58.896Z,2.14
2023-04-02T16:19:40.050Z,2.05
2023-04-02T16:22:29.799Z,2.10
2023-04-02T16:25:01.407Z,1.81
2023-04-02T16:27:38.221Z,1.75
2023-04-02T16:30:39.105Z,2.15
2023-04-02T16:33:33.030Z,2.12
2023-04-02T16:36:15.743Z,1.81
2023-04-02T16:39:13.355Z,2.07
2023-04-02T16:41:50.599Z,1.76
2023-04-02T16:44:42.786Z,1.89
2023-04-02T16:47:12.571Z,1.38
2023-04-02T16:50:11.421Z,1.83
2023-04-02T16:53:19.432Z,1.71
2023-04-02T16:56:06.083Z,1.88
2023-04-02T16:58:44.883Z,1.66
2023-04-02T17:01:24.778Z,1.65
2023-04-02T17:04:25.926Z,1.74
2023-04-02T17:06:58.466Z,1.61
2023-04-02T17:09:36.916Z,1.57
2023-04-02T17:12:16.239Z,1.73
2023-04-02T17:15:14.238Z,1.75
2023-04-02T17:17:54.855Z,1.93
2023-04-02T17:20:24.005Z,1.60
2023-04-02T17:22:51.193Z,1.85
2023-04-02T17:25:23.214Z,1.95
2023-04-02T17:27:55.030Z,1.58
2023-04-02T17:30:51.360Z,1.90
2023-04-02T17:33:19.002Z,2.11
2023-04-02T17:36:32.903Z,1.97
2023-04-02T17:39:25.580Z,1.73
2023-04-02T17:42:05.288Z,1.71
2023-04-02T17:45:02.655Z,1.75
2023-04-02T17:48:12.741Z,1.82
2023-04-02T17:51:02.868Z,1.90
2023-04-02T17:53:48.335Z,2.18
2023-04-02T17:56:17.970Z,1.85
2023-04-02T17:59:14.251Z,1.92
2023-04-02T18:02:02.218Z,1.71
2023-04-02T18:04:35.432Z,1.79
2023-04-02T18:07:28.214Z,1.71
2023-04-02T18:10:07.201Z,1.63
2023-04-02T18:12:39.877Z,1.92
2023-04-02T18:15:34.290Z,1.87
2023-04-02T18:18:03.987Z,1.79
2023-04-02T18:20:53.795Z,1.96
2023-04-02T18:23:36.520Z,1.92
2023-04-02T18:26:36.428Z,1.74
2023-04-02T18:29:18.240Z,1.96
2023-04-02T18:31:46.264Z,1.95
2023-04-02T18:34:31.044Z,1.37
2023-04-02T18:37:47.712Z,1.69
2023-04-02T18:40:36.312Z,1.90
2023-04-02T18:43:29.623Z,1.86
2023-04-02T18:46:05.682Z,2.04
2023-04-02T18:48:47.588Z,1.98
2023-04-02T18:51:24.692Z,2.02
2023-04-02T18:54:16.862Z,2.05
2023-04-02T18:56:43.584Z,1.71
2023-04-02T18:59:33.687Z,1.55
2023-04-02T19:02:15.765Z,1.81
2023-04-02T19:04:52.315Z,1.90
2023-04-02T19:07:21.384Z,1.89
2023-04-02T19:09:51.746Z,1.68
2023-04-02T19:12:21.520Z,1.94
2023-04-02T19:14:50.986Z,1.96
2023-04-02T19:17:28.268Z,1.82
2023-04-02T19:20:39.848Z,2.06
2023-04-02T19:23:12.579Z,2.14
2023-04-02T19:25:52.294Z,2.14
2023-04-02T19:28:25.027Z,2.13
2023-04-02T19:30:51.633Z,2.04
2023-04-02T19:33:34.869Z,1.99
2023-04-02T19:36:20.035Z,1.72
2023-04-02T19:38:55.936Z,1.07
2023-04-02T19:41:41.392Z,1.47
2023-04-02T19:44:14.337Z,1.49
2023-04-02T19:46:41.471Z,1.31
2023-04-02T19:49:24.823Z,1.29
2023-04-02T19:51:51.920Z,1.17
2023-04-02T19:54:18.914Z,1.00
2023-04-02T19:56:45.940Z,0.78
2023-04-02T19:59:18.207Z,0.67
2023-04-02T20:01:46.373Z,0.23
2023-04-02T20:04:13.287Z,0.40
2023-04-02T20:06:39.990Z,0.54
2023-04-02T20:09:08.227Z,0.28
2023-04-02T20:11:36.483Z,-0.06
2023-04-02T20:14:03.701Z,0.26
2023-04-02T20:16:30.288Z,0.20
2023-04-02T20:18:57.022Z,0.01
2023-04-02T20:21:23.555Z,0.34
2023-04-02T20:23:56.113Z,0.35
2023-04-02T20:26:23.261Z,-0.04
2023-04-02T20:28:50.024Z,0.26
2023-04-02T20:31:18.445Z,0.30
2023-04-02T20:33:45.821Z,0.50
2023-04-02T20:36:15.947Z,0.65
2023-04-02T20:38:43.539Z,0.59
2023-04-02T20:41:10.923Z,0.54
2023-04-02T20:43:40.648Z,0.50
2023-04-02T20:46:10.087Z,0.47
2023-04-02T20:48:37.834Z,0.22
2023-04-02T20:51:06.496Z,0.19
2023-04-02T20:53:34.633Z,0.12
2023-04-02T20:56:09.195Z,0.16
2023-04-02T20:58:37.218Z,-0.03
2023-04-02T21:01:11.911Z,0.18
2023-04-02T21:03:39.904Z,0.28
2023-04-02T21:06:12.838Z,0.15
2023-04-02T21:08:39.488Z,-0.19
2023-04-02T21:11:06.977Z,0.00
2023-04-02T21:13:38.037Z,0.22
2023-04-02T21:16:12.007Z,0.14
2023-04-02T21:18:38.544Z,0.25
2023-04-02T21:21:06.848Z,0.23
2023-04-02T21:23:34.173Z,0.25
2023-04-02T21:26:04.270Z,0.29
2023-04-02T21:28:30.862Z,0.28
2023-04-02T21:31:12.061Z,0.40
2023-04-02T21:33:44.717Z,0.39
2023-04-02T21:36:13.963Z,0.42
2023-04-02T21:38:45.187Z,0.38
2023-04-02T21:41:38.734Z,0.28
2023-04-02T21:44:07.083Z,0.15
2023-04-02T21:46:36.731Z,0.35
2023-04-02T21:49:03.713Z,0.28
2023-04-02T21:51:33.066Z,0.13
2023-04-02T21:54:00.728Z,0.32
2023-04-02T21:56:29.847Z,0.49
2023-04-02T21:58:58.164Z,0.53
2023-04-02T22:01:30.280Z,0.49
2023-04-02T22:03:59.625Z,0.54
2023-04-02T22:06:28.653Z,0.55
2023-04-02T22:08:59.976Z,0.52
2023-04-02T22:11:32.563Z,0.39
2023-04-02T22:13:59.880Z,0.48
2023-04-02T22:16:28.608Z,0.58
2023-04-02T22:18:57.272Z,0.68
2023-04-02T22:21:24.410Z,0.69
2023-04-02T22:23:51.425Z,0.77
2023-04-02T22:26:20.787Z,0.84
2023-04-02T22:28:47.351Z,0.85
2023-04-02T22:31:16.554Z,0.85
2023-04-02T22:33:44.509Z,0.96
2023-04-02T22:36:12.077Z,0.88
2023-04-02T22:38:39.007Z,0.85
2023-04-02T22:41:13.344Z,0.91
2023-04-02T22:43:41.603Z,0.81
2023-04-02T22:46:09.317Z,0.54
2023-04-02T22:48:36.378Z,0.64
2023-04-02T22:51:03.285Z,0.67
2023-04-02T22:53:30.049Z,0.50
2023-04-02T22:56:03.162Z,0.54
2023-04-02T22:58:29.832Z,0.60
2023-04-02T23:00:56.525Z,0.74
2023-04-02T23:03:23.039Z,0.60
2023-04-02T23:06:05.242Z,0.65
2023-04-02T23:08:31.781Z,0.62
2023-04-02T23:11:21.267Z,0.58
2023-04-02T23:13:50.318Z,0.75
2023-04-02T23:16:17.897Z,0.78
2023-04-02T23:18:47.810Z,0.70
2023-04-02T23:21:15.957Z,0.69
2023-04-02T23:23:42.840Z,0.67
2023-04-02T23:26:18.419Z,0.82
2023-04-02T23:28:45.180Z,0.83
2023-04-02T23:31:18.569Z,0.86
2023-04-02T23:33:45.831Z,0.86
2023-04-02T23:36:24.662Z,1.00
2023-04-02T23:38:55.111Z,0.91
2023-04-02T23:41:23.810Z,0.94
2023-04-02T23:43:51.031Z,0.94
2023-04-02T23:46:17.737Z,0.89
2023-04-02T23:48:45.925Z,0.74
2023-04-02T23:51:13.329Z,0.84
2023-04-02T23:53:40.055Z,0.80
2023-04-02T23:56:06.903Z,0.78
2023-04-02T23:58:33.468Z,0.93
